Terminal Aerodrome Forecast
Issued by NWS

Home | Current Version | Previous Version | Text Only | Print | Product List | Glossary Off
Versions: 1 2 3 4 5 6 7 8 9 10 11 12 13 14 15 16 17 18 19 20 21

000
FTUS43 KGRB 201910 AAA
TAFMTW
TAF AMD
KMTW 201910Z 2019/2118 23007KT 6SM BR BKN007 OVC030
      TEMPO 2019/2022 3SM -RA OVC004
     FM202200 27009KT 6SM BR OVC010
     FM210000 28008KT P6SM OVC028
     FM210300 30011G17KT P6SM SCT030
     FM211200 31010KT P6SM SKC=

USA.gov is the U.S. government's official web portal to all federal, state and local government web resources and services.